Time;durP1;ratioP1;P1;durP2;ratioP2;P2;SDS_P1;SDS_P2;PMS_P1;PMS_P2;Temp;Humidity;BMP_temperature;BMP_pressure;BME280_temperature;BME280_humidity;BME280_pressure;Samples;Min_cycle;Max_cycle;Signal;HPM_P1;HPM_P2
2022/11/15 00:01:45;;;;;;;1.07;0.67;;;9.20;99.90;;;;;;4954978;28;20221;-69
2022/11/15 00:04:11;;;;;;;0.33;0.33;;;9.10;99.90;;;;;;4955067;28;20193;-69
2022/11/15 00:06:37;;;;;;;0.40;0.40;;;9.00;99.90;;;;;;4955481;28;20177;-68
2022/11/15 00:09:03;;;;;;;0.73;0.73;;;9.00;99.90;;;;;;4957351;28;20180;-69
2022/11/15 00:11:29;;;;;;;0.88;0.75;;;8.90;99.90;;;;;;4958288;28;20173;-70
2022/11/15 00:13:55;;;;;;;0.95;0.95;;;8.80;99.90;;;;;;4958152;28;20209;-71
2022/11/15 00:16:22;;;;;;;0.98;0.98;;;8.70;99.90;;;;;;4958433;28;20268;-67
2022/11/15 00:18:48;;;;;;;0.50;0.50;;;8.60;99.90;;;;;;4958279;28;20232;-68
2022/11/15 00:21:14;;;;;;;0.40;0.40;;;8.60;99.90;;;;;;4958559;28;20171;-70
2022/11/15 00:23:40;;;;;;;0.40;0.40;;;8.60;99.90;;;;;;4958511;28;20420;-69
2022/11/15 00:26:06;;;;;;;1.03;0.93;;;8.60;99.90;;;;;;4958246;28;20180;-67
2022/11/15 00:28:32;;;;;;;0.68;0.68;;;8.70;99.90;;;;;;4958027;28;20428;-69
2022/11/15 00:31:02;;;;;;;1.00;1.00;;;8.80;99.90;;;;;;4958071;28;20182;-69
2022/11/15 00:33:28;;;;;;;0.98;0.98;;;8.90;99.90;;;;;;4958106;28;20456;-71
2022/11/15 00:36:05;;;;;;;0.88;0.88;;;8.90;99.90;;;;;;4957667;28;20200;-69
2022/11/15 00:38:32;;;;;;;0.30;0.30;;;8.90;99.90;;;;;;4957912;28;20165;-68
2022/11/15 00:40:58;;;;;;;0.30;0.30;;;9.00;99.90;;;;;;4957915;28;20585;-68
2022/11/15 00:43:24;;;;;;;0.30;0.30;;;8.90;99.90;;;;;;4957967;28;20177;-69
2022/11/15 00:45:49;;;;;;;0.30;0.30;;;9.00;99.90;;;;;;4958037;28;20280;-68
2022/11/15 00:48:15;;;;;;;0.50;0.50;;;9.10;99.90;;;;;;4958109;28;20185;-70
2022/11/15 00:50:40;;;;;;;1.07;0.60;;;9.10;99.90;;;;;;4957158;28;20227;-70
2022/11/15 00:53:06;;;;;;;0.60;0.60;;;9.10;99.90;;;;;;4957899;28;20209;-70
2022/11/15 00:55:32;;;;;;;1.27;1.17;;;9.10;99.90;;;;;;4957605;28;20218;-71
2022/11/15 00:57:57;;;;;;;0.40;0.40;;;9.10;99.90;;;;;;4957736;28;20224;-71
2022/11/15 01:00:23;;;;;;;1.00;1.00;;;9.10;99.90;;;;;;4957663;28;20551;-69
2022/11/15 01:02:49;;;;;;;0.30;0.30;;;9.00;99.90;;;;;;4957884;28;20176;-67
2022/11/15 01:05:14;;;;;;;0.60;0.60;;;9.10;99.90;;;;;;4957230;28;20196;-69
2022/11/15 01:07:40;;;;;;;0.70;0.70;;;9.00;99.90;;;;;;4957483;28;20176;-69
2022/11/15 01:10:06;;;;;;;0.40;0.40;;;9.00;99.90;;;;;;4957391;28;20181;-69
2022/11/15 01:12:32;;;;;;;0.30;0.30;;;9.10;99.90;;;;;;4957519;28;20220;-67
2022/11/15 01:14:57;;;;;;;0.40;0.40;;;9.20;99.90;;;;;;4957438;28;20236;-68
2022/11/15 01:17:23;;;;;;;2.17;2.07;;;9.20;99.90;;;;;;4957564;28;20181;-68
2022/11/15 01:19:49;;;;;;;0.63;0.63;;;9.20;99.90;;;;;;4957173;28;20174;-71
2022/11/15 01:22:15;;;;;;;1.37;1.27;;;9.20;99.90;;;;;;4956924;28;20249;-70
2022/11/15 01:24:41;;;;;;;0.50;0.40;;;9.10;99.90;;;;;;4957068;28;20189;-67
2022/11/15 01:27:07;;;;;;;0.30;0.30;;;9.10;99.90;;;;;;4957161;28;20729;-70
2022/11/15 01:29:33;;;;;;;0.87;0.87;;;9.00;99.90;;;;;;4956726;28;20184;-69
2022/11/15 01:31:58;;;;;;;0.77;0.77;;;9.10;99.90;;;;;;4957240;28;20633;-67
2022/11/15 01:34:24;;;;;;;1.30;1.13;;;9.10;99.90;;;;;;4957113;28;20565;-67
2022/11/15 01:36:49;;;;;;;0.40;0.40;;;9.10;99.90;;;;;;4956808;28;20169;-69
2022/11/15 01:39:15;;;;;;;0.40;0.40;;;9.20;99.90;;;;;;4956598;28;20184;-69
2022/11/15 01:41:41;;;;;;;0.50;0.50;;;9.30;99.90;;;;;;4957136;28;20180;-69
2022/11/15 01:44:31;;;;;;;0.50;0.50;;;9.30;99.90;;;;;;4956997;28;20538;-68
2022/11/15 01:47:00;;;;;;;0.93;0.93;;;9.30;99.90;;;;;;4957105;28;20176;-69
2022/11/15 01:49:28;;;;;;;2.58;1.10;;;9.30;99.90;;;;;;4956589;28;20190;-67
2022/11/15 01:51:55;;;;;;;0.95;0.95;;;9.40;99.90;;;;;;4956877;28;20170;-69
2022/11/15 01:54:23;;;;;;;2.25;1.30;;;9.40;99.90;;;;;;4956365;28;20197;-67
2022/11/15 01:56:58;;;;;;;1.58;1.42;;;9.40;99.90;;;;;;4956904;28;20177;-69
2022/11/15 01:59:24;;;;;;;1.95;1.35;;;9.40;99.90;;;;;;4956581;28;20169;-67
2022/11/15 02:01:50;;;;;;;0.50;0.50;;;9.40;99.90;;;;;;4956472;28;20174;-70
2022/11/15 02:04:28;;;;;;;0.60;0.40;;;9.30;99.90;;;;;;4956851;28;20533;-69
2022/11/15 02:06:54;;;;;;;1.33;1.33;;;9.30;99.90;;;;;;4956562;28;20154;-70
2022/11/15 02:09:20;;;;;;;0.63;0.63;;;9.40;99.90;;;;;;4956081;28;20166;-70
2022/11/15 02:11:47;;;;;;;2.10;2.00;;;9.40;99.90;;;;;;4956659;28;20504;-71
2022/11/15 02:14:15;;;;;;;0.75;0.75;;;9.40;99.90;;;;;;4956354;28;20272;-70
2022/11/15 02:17:08;;;;;;;0.50;0.50;;;9.40;99.90;;;;;;4955995;28;20192;-69
2022/11/15 02:20:11;;;;;;;0.82;0.82;;;9.50;99.90;;;;;;4955956;28;20177;-68
2022/11/15 02:23:09;;;;;;;0.55;0.55;;;9.50;99.90;;;;;;4956078;28;20264;-68
2022/11/15 02:25:39;;;;;;;0.30;0.30;;;9.30;99.90;;;;;;4956196;28;20189;-70
2022/11/15 02:28:39;;;;;;;0.30;0.30;;;9.30;99.90;;;;;;4955890;28;20712;-70
2022/11/15 02:31:23;;;;;;;0.38;0.38;;;9.30;99.90;;;;;;4955499;28;20252;-68
2022/11/15 02:33:56;;;;;;;0.50;0.50;;;9.40;99.90;;;;;;4955896;28;20617;-69
2022/11/15 02:36:43;;;;;;;0.60;0.60;;;9.50;99.90;;;;;;4955695;28;20524;-68
2022/11/15 02:39:45;;;;;;;0.80;0.60;;;9.50;99.90;;;;;;4955724;28;20171;-68
2022/11/15 02:45:26;;;;;;;0.63;0.63;;;9.40;99.90;;;;;;4956026;28;20280;-70
2022/11/15 02:47:57;;;;;;;0.50;0.50;;;9.50;99.90;;;;;;4956103;28;20204;-68
2022/11/15 02:50:27;;;;;;;1.13;1.10;;;9.50;99.90;;;;;;4955786;28;20181;-69
2022/11/15 02:52:53;;;;;;;0.60;0.60;;;9.40;99.90;;;;;;4955821;28;20205;-68
2022/11/15 02:55:31;;;;;;;1.40;1.30;;;9.40;99.90;;;;;;4955441;28;20181;-70
2022/11/15 02:58:18;;;;;;;0.70;0.50;;;9.40;99.90;;;;;;4955638;28;20153;-68
2022/11/15 03:01:22;;;;;;;0.30;0.30;;;9.40;99.90;;;;;;4955548;28;20179;-67
2022/11/15 03:04:16;;;;;;;0.30;0.30;;;9.50;99.90;;;;;;4955327;28;20193;-68
2022/11/15 03:07:11;;;;;;;0.50;0.50;;;9.60;99.90;;;;;;4955694;28;20174;-70
2022/11/15 03:09:50;;;;;;;1.00;1.00;;;9.60;99.90;;;;;;4955449;28;20265;-71
2022/11/15 03:12:26;;;;;;;1.15;1.05;;;9.60;99.90;;;;;;4955812;28;20240;-66
2022/11/15 03:15:06;;;;;;;0.40;0.40;;;9.60;99.90;;;;;;4955620;28;20524;-70
2022/11/15 03:17:58;;;;;;;0.60;0.60;;;9.50;99.90;;;;;;4955492;28;20196;-68
2022/11/15 03:20:26;;;;;;;0.98;0.98;;;9.50;99.90;;;;;;4954011;29;20544;-70
2022/11/15 03:22:55;;;;;;;0.30;0.30;;;9.60;99.90;;;;;;4955852;28;20177;-70
2022/11/15 03:25:24;;;;;;;0.35;0.35;;;9.60;99.90;;;;;;4955300;28;20193;-68
2022/11/15 03:27:57;;;;;;;0.85;0.70;;;9.60;99.90;;;;;;4955576;28;20176;-69
2022/11/15 03:30:23;;;;;;;0.50;0.50;;;9.60;99.90;;;;;;4955459;28;20180;-67
2022/11/15 03:32:55;;;;;;;0.70;0.70;;;9.60;99.90;;;;;;4955233;28;20197;-69
2022/11/15 03:35:25;;;;;;;1.73;1.63;;;9.70;99.90;;;;;;4955681;28;20253;-68
2022/11/15 03:38:04;;;;;;;0.30;0.30;;;9.70;99.90;;;;;;4955410;28;20503;-68
2022/11/15 03:40:52;;;;;;;0.50;0.50;;;9.70;99.90;;;;;;4955242;28;20523;-69
2022/11/15 03:43:29;;;;;;;0.30;0.30;;;9.70;99.90;;;;;;4958509;28;20177;-67
2022/11/15 03:46:00;;;;;;;0.40;0.40;;;9.70;99.90;;;;;;4958695;28;20646;-68
2022/11/15 03:48:33;;;;;;;0.55;0.55;;;9.70;99.90;;;;;;4959079;29;20533;-67
2022/11/15 03:50:59;;;;;;;0.60;0.60;;;9.70;99.90;;;;;;4958961;28;20571;-68
2022/11/15 03:53:25;;;;;;;0.32;0.32;;;9.70;99.90;;;;;;4958772;28;20277;-70
2022/11/15 03:55:50;;;;;;;0.30;0.30;;;9.60;99.90;;;;;;4959068;28;20201;-68
2022/11/15 03:58:16;;;;;;;1.23;1.23;;;9.60;99.90;;;;;;4959117;28;20646;-71
2022/11/15 04:00:42;;;;;;;1.17;1.07;;;9.50;99.90;;;;;;4958381;28;20209;-67
2022/11/15 04:03:08;;;;;;;0.60;0.60;;;9.40;99.90;;;;;;4958689;28;20216;-69
2022/11/15 04:05:33;;;;;;;0.30;0.30;;;9.50;99.90;;;;;;4958656;28;20200;-68
2022/11/15 04:07:59;;;;;;;2.10;1.57;;;9.60;99.90;;;;;;4958660;28;20178;-67
2022/11/15 04:10:25;;;;;;;0.83;0.83;;;9.60;99.90;;;;;;4958079;28;20421;-71
2022/11/15 04:12:50;;;;;;;1.70;0.63;;;9.70;99.90;;;;;;4958345;28;20197;-70
2022/11/15 04:15:19;;;;;;;0.70;0.70;;;9.70;99.90;;;;;;4958370;28;20200;-71
2022/11/15 04:17:48;;;;;;;0.50;0.50;;;9.80;99.90;;;;;;4958296;28;20632;-69
2022/11/15 04:25:55;;;;;;;0.30;0.30;;;9.60;99.90;;;;;;4958528;28;20213;-70
2022/11/15 04:28:20;;;;;;;0.40;0.40;;;9.70;99.90;;;;;;4958290;28;20166;-69
2022/11/15 04:30:46;;;;;;;0.47;0.47;;;9.80;99.90;;;;;;4958142;28;20220;-67
2022/11/15 04:33:12;;;;;;;0.40;0.40;;;9.70;99.90;;;;;;4958373;28;20197;-71
2022/11/15 04:35:38;;;;;;;0.60;0.50;;;9.80;99.90;;;;;;4958391;28;20437;-69
2022/11/15 04:38:06;;;;;;;0.40;0.40;;;9.80;99.90;;;;;;4958025;28;20523;-70
2022/11/15 04:40:31;;;;;;;0.40;0.40;;;9.80;99.90;;;;;;4957771;28;20177;-70
2022/11/15 04:42:57;;;;;;;0.30;0.30;;;9.80;99.90;;;;;;4958249;28;20181;-71
2022/11/15 04:45:23;;;;;;;0.40;0.40;;;9.70;99.90;;;;;;4958036;28;20272;-69
2022/11/15 04:47:48;;;;;;;0.53;0.53;;;9.70;99.90;;;;;;4957874;28;20413;-68
2022/11/15 04:50:15;;;;;;;0.70;0.70;;;9.70;99.90;;;;;;4957318;28;20166;-67
2022/11/15 04:52:42;;;;;;;0.65;0.65;;;9.80;99.90;;;;;;4957526;28;20201;-70
2022/11/15 04:55:11;;;;;;;0.57;0.57;;;9.80;99.90;;;;;;4956896;28;20201;-68
2022/11/15 04:57:37;;;;;;;0.30;0.30;;;9.80;99.90;;;;;;4957878;28;20181;-69
2022/11/15 05:00:08;;;;;;;0.40;0.40;;;9.80;99.90;;;;;;4957319;28;20198;-68
2022/11/15 05:05:18;;;;;;;0.30;0.30;;;9.80;99.90;;;;;;4957410;28;20211;-71
2022/11/15 05:07:43;;;;;;;0.73;0.70;;;9.80;99.90;;;;;;4957848;28;20643;-69
2022/11/15 05:10:09;;;;;;;0.83;0.70;;;9.90;99.90;;;;;;4957174;28;20181;-68
2022/11/15 05:12:35;;;;;;;0.57;0.57;;;10.40;99.90;;;;;;4957538;28;20248;-69
2022/11/15 05:15:01;;;;;;;0.63;0.63;;;10.90;99.90;;;;;;4956959;28;20272;-69
2022/11/15 05:17:26;;;;;;;0.50;0.50;;;11.50;99.90;;;;;;4957057;28;20429;-69
2022/11/15 05:19:52;;;;;;;0.70;0.70;;;12.00;99.90;;;;;;4957055;28;20232;-69
2022/11/15 05:22:19;;;;;;;0.67;0.67;;;12.40;99.90;;;;;;4957169;28;20201;-69
2022/11/15 05:24:44;;;;;;;0.43;0.43;;;12.80;99.90;;;;;;4957211;28;20654;-68
2022/11/15 05:27:10;;;;;;;0.30;0.30;;;13.20;99.90;;;;;;4957463;28;20417;-71
2022/11/15 05:29:36;;;;;;;0.40;0.40;;;13.50;99.90;;;;;;4956920;28;20173;-71
2022/11/15 05:32:04;;;;;;;0.63;0.40;;;13.40;99.90;;;;;;4957105;28;20181;-72
2022/11/15 05:34:30;;;;;;;0.47;0.47;;;12.70;99.90;;;;;;4956718;28;20224;-70
2022/11/15 05:36:56;;;;;;;0.40;0.40;;;;;;;;;;4956945;28;20437;-71
2022/11/15 05:39:22;;;;;;;0.40;0.40;;;12.20;97.00;;;;;;4956391;29;20405;-70
2022/11/15 05:41:52;;;;;;;8.17;1.40;;;11.80;97.90;;;;;;4956912;28;20475;-71
2022/11/15 05:44:22;;;;;;;0.87;0.73;;;10.90;99.60;;;;;;4956433;28;20190;-70
2022/11/15 05:46:48;;;;;;;0.40;0.40;;;10.90;99.90;;;;;;4956721;28;20492;-70
2022/11/15 05:49:19;;;;;;;0.40;0.40;;;10.80;99.90;;;;;;4956074;28;20187;-71
2022/11/15 05:51:47;;;;;;;0.30;0.30;;;10.60;99.90;;;;;;4956770;28;20297;-70
2022/11/15 05:54:14;;;;;;;0.30;0.30;;;10.30;99.90;;;;;;4956663;28;20220;-72
2022/11/15 05:56:40;;;;;;;0.85;0.85;;;10.30;99.90;;;;;;4956799;28;20188;-68
2022/11/15 05:59:08;;;;;;;0.40;0.40;;;10.30;99.90;;;;;;4956614;28;20170;-71
2022/11/15 06:01:33;;;;;;;0.65;0.65;;;10.20;99.90;;;;;;4956163;28;20409;-68
2022/11/15 06:03:59;;;;;;;0.73;0.73;;;10.10;99.90;;;;;;4956116;28;20200;-68
2022/11/15 06:06:26;;;;;;;0.60;0.60;;;10.00;99.90;;;;;;4955815;28;20645;-70
2022/11/15 06:08:52;;;;;;;1.58;0.70;;;10.00;99.90;;;;;;4956178;28;20178;-69
2022/11/15 06:11:18;;;;;;;0.40;0.40;;;10.10;99.90;;;;;;4956678;28;20188;-71
2022/11/15 06:13:43;;;;;;;0.40;0.40;;;10.10;99.90;;;;;;4955837;28;20761;-69
2022/11/15 06:16:09;;;;;;;0.30;0.30;;;10.10;99.90;;;;;;4956004;28;20649;-69
2022/11/15 06:18:35;;;;;;;0.77;0.77;;;10.00;99.90;;;;;;4955774;28;20166;-69
2022/11/15 06:21:01;;;;;;;0.30;0.30;;;10.00;99.90;;;;;;4955288;28;20632;-71
2022/11/15 06:23:28;;;;;;;0.30;0.30;;;10.00;99.90;;;;;;4956144;28;20312;-71
2022/11/15 06:25:57;;;;;;;0.30;0.30;;;10.00;99.90;;;;;;4956431;28;20546;-70
2022/11/15 06:28:22;;;;;;;0.60;0.50;;;10.00;99.90;;;;;;4956520;28;20173;-67
2022/11/15 06:30:48;;;;;;;0.30;0.30;;;10.00;99.90;;;;;;4955804;28;20645;-69
2022/11/15 06:33:14;;;;;;;0.50;0.50;;;10.00;99.90;;;;;;4955347;28;20288;-69
2022/11/15 06:35:41;;;;;;;0.30;0.30;;;9.90;99.90;;;;;;4955269;28;20216;-70
2022/11/15 06:38:10;;;;;;;0.40;0.40;;;10.00;99.90;;;;;;4955093;28;20174;-70
2022/11/15 06:40:40;;;;;;;0.40;0.40;;;10.00;99.90;;;;;;4955642;28;20169;-68
2022/11/15 06:43:07;;;;;;;0.85;0.85;;;10.00;99.90;;;;;;4954838;28;20178;-67
2022/11/15 06:45:33;;;;;;;0.60;0.60;;;10.10;99.90;;;;;;4955051;28;20240;-69
2022/11/15 06:47:59;;;;;;;0.50;0.50;;;10.10;99.90;;;;;;4955328;28;20177;-70
2022/11/15 06:50:24;;;;;;;0.30;0.30;;;10.10;99.90;;;;;;4955884;28;20623;-70
2022/11/15 06:52:51;;;;;;;0.50;0.50;;;10.10;99.90;;;;;;4955719;28;20689;-69
2022/11/15 06:55:16;;;;;;;0.30;0.30;;;10.10;99.90;;;;;;4955275;28;20189;-69
2022/11/15 06:57:52;;;;;;;0.60;0.60;;;10.20;99.90;;;;;;4955530;28;20178;-70
2022/11/15 07:00:20;;;;;;;0.40;0.40;;;10.20;99.90;;;;;;4955524;28;20173;-70
2022/11/15 07:02:46;;;;;;;0.70;0.65;;;10.20;99.90;;;;;;4955762;28;20214;-70
2022/11/15 07:05:13;;;;;;;0.30;0.30;;;10.20;99.90;;;;;;4955323;28;20204;-71
2022/11/15 07:07:39;;;;;;;0.80;0.80;;;10.20;99.90;;;;;;4955825;28;20182;-70
2022/11/15 07:10:05;;;;;;;0.60;0.60;;;10.20;99.90;;;;;;4955198;28;20185;-70
2022/11/15 07:12:31;;;;;;;0.60;0.60;;;10.10;99.90;;;;;;4955154;28;20456;-70
2022/11/15 07:14:57;;;;;;;0.40;0.40;;;10.10;99.90;;;;;;4955575;28;20196;-71
2022/11/15 07:17:22;;;;;;;2.53;0.93;;;10.00;99.90;;;;;;4956842;28;20193;-70
2022/11/15 07:19:48;;;;;;;0.30;0.30;;;10.10;99.90;;;;;;4959016;28;20181;-70
2022/11/15 07:22:13;;;;;;;2.93;2.03;;;10.10;99.90;;;;;;4959786;28;20616;-71
2022/11/15 07:24:39;;;;;;;0.83;0.83;;;10.20;99.90;;;;;;4959698;28;20229;-71
2022/11/15 07:27:05;;;;;;;1.57;1.47;;;10.20;99.90;;;;;;4959409;28;20177;-68
2022/11/15 07:29:30;;;;;;;0.53;0.50;;;10.30;99.90;;;;;;4959026;28;20174;-68
2022/11/15 07:31:56;;;;;;;0.70;0.70;;;10.40;99.90;;;;;;4959342;28;20166;-68
2022/11/15 07:34:22;;;;;;;0.60;0.60;;;10.40;99.90;;;;;;4957804;28;20213;-70
2022/11/15 07:36:47;;;;;;;1.70;0.93;;;10.40;99.90;;;;;;4958433;28;20181;-69
2022/11/15 07:39:13;;;;;;;0.67;0.67;;;10.40;99.90;;;;;;4958648;28;20185;-69
2022/11/15 07:41:39;;;;;;;2.80;1.17;;;10.50;99.90;;;;;;4959276;28;20252;-69
2022/11/15 07:44:05;;;;;;;0.50;0.50;;;10.50;99.90;;;;;;4958995;28;20288;-68
2022/11/15 07:46:31;;;;;;;1.00;1.00;;;10.60;99.90;;;;;;4959268;28;20201;-68
2022/11/15 07:48:57;;;;;;;29.58;26.98;;;10.60;99.90;;;;;;4958831;28;20186;-69
2022/11/15 07:51:23;;;;;;;3.87;3.50;;;10.70;99.90;;;;;;4959308;28;20528;-69
2022/11/15 07:53:48;;;;;;;2.40;2.30;;;10.80;99.90;;;;;;4958881;28;20662;-70
2022/11/15 07:56:14;;;;;;;2.80;1.90;;;10.80;99.90;;;;;;4958806;28;20416;-70
2022/11/15 07:58:40;;;;;;;1.83;1.40;;;10.90;99.90;;;;;;4958591;28;20166;-69
2022/11/15 08:01:08;;;;;;;2.10;1.43;;;10.90;99.90;;;;;;4958834;28;20201;-69
2022/11/15 08:03:34;;;;;;;1.25;1.15;;;10.90;99.90;;;;;;4958925;28;20413;-69
2022/11/15 08:06:00;;;;;;;0.40;0.40;;;10.80;99.90;;;;;;4958946;28;20201;-69
2022/11/15 08:08:25;;;;;;;0.40;0.40;;;10.90;99.90;;;;;;4958366;28;20946;-71
2022/11/15 08:10:51;;;;;;;0.50;0.50;;;11.00;99.90;;;;;;4957612;28;20409;-70
2022/11/15 08:13:17;;;;;;;0.30;0.30;;;11.10;99.90;;;;;;4957059;28;20288;-69
2022/11/15 08:15:43;;;;;;;0.80;0.80;;;11.20;99.90;;;;;;4958387;28;20193;-69
2022/11/15 08:18:12;;;;;;;0.40;0.40;;;11.20;99.90;;;;;;4958786;28;20967;-70
2022/11/15 08:20:38;;;;;;;0.40;0.40;;;11.30;99.90;;;;;;4956783;29;20426;-70
2022/11/15 08:23:04;;;;;;;2.50;1.43;;;11.30;99.90;;;;;;4958148;28;20177;-70
2022/11/15 08:25:31;;;;;;;0.67;0.67;;;11.30;99.90;;;;;;4958097;28;20512;-70
2022/11/15 08:28:00;;;;;;;0.63;0.63;;;11.30;99.90;;;;;;4957973;28;20894;-69
2022/11/15 08:30:26;;;;;;;0.55;0.55;;;11.40;99.90;;;;;;4957542;28;20185;-70
2022/11/15 08:32:55;;;;;;;1.57;0.50;;;11.40;99.90;;;;;;4958275;28;20201;-70
2022/11/15 08:35:32;;;;;;;0.40;0.40;;;11.50;99.90;;;;;;4958028;28;20563;-69
2022/11/15 08:38:00;;;;;;;1.15;1.08;;;11.50;99.90;;;;;;4957822;29;20508;-67
2022/11/15 08:40:26;;;;;;;0.60;0.60;;;11.60;99.90;;;;;;4958234;28;20252;-70
2022/11/15 08:42:52;;;;;;;1.17;1.17;;;11.60;99.90;;;;;;4958535;28;20414;-71
2022/11/15 08:45:18;;;;;;;2.10;0.60;;;11.70;99.90;;;;;;4957603;28;20433;-68
2022/11/15 08:47:43;;;;;;;0.40;0.40;;;11.70;99.90;;;;;;4958309;28;20582;-69
2022/11/15 08:50:09;;;;;;;0.40;0.40;;;11.80;99.90;;;;;;4957451;28;20205;-68
2022/11/15 08:52:35;;;;;;;0.70;0.70;;;11.90;99.90;;;;;;4957628;28;20201;-69
2022/11/15 08:55:00;;;;;;;0.80;0.80;;;12.00;99.90;;;;;;4957880;28;20201;-70
2022/11/15 08:57:30;;;;;;;1.67;1.57;;;12.10;99.90;;;;;;4957550;28;20210;-70
2022/11/15 08:59:56;;;;;;;0.70;0.70;;;12.10;99.90;;;;;;4957212;28;20197;-70
2022/11/15 09:02:22;;;;;;;0.43;0.43;;;12.00;99.90;;;;;;4957299;28;20829;-65
2022/11/15 09:04:47;;;;;;;0.60;0.60;;;12.00;99.90;;;;;;4957371;28;20532;-70
2022/11/15 09:07:13;;;;;;;0.50;0.50;;;12.00;99.90;;;;;;4957369;28;20256;-68
2022/11/15 09:09:40;;;;;;;0.90;0.90;;;12.10;99.90;;;;;;4957119;28;20749;-70
2022/11/15 09:12:07;;;;;;;0.87;0.87;;;12.20;99.90;;;;;;4957500;28;20416;-72
2022/11/15 09:14:33;;;;;;;0.70;0.70;;;12.20;99.90;;;;;;4957610;28;20453;-67
2022/11/15 09:16:59;;;;;;;0.73;0.50;;;12.30;99.90;;;;;;4957146;28;20835;-70
2022/11/15 09:19:24;;;;;;;6.10;1.53;;;12.30;99.90;;;;;;4955718;29;20462;-69
2022/11/15 09:21:50;;;;;;;0.53;0.53;;;12.30;99.90;;;;;;4956987;28;20176;-71
2022/11/15 09:24:17;;;;;;;1.83;1.73;;;12.30;99.90;;;;;;4957270;28;20207;-70
2022/11/15 09:26:43;;;;;;;1.23;1.13;;;12.30;99.90;;;;;;4957400;28;20439;-67
2022/11/15 09:29:08;;;;;;;1.60;1.50;;;12.40;99.90;;;;;;4957125;28;20897;-67
2022/11/15 09:31:34;;;;;;;1.07;0.97;;;12.30;99.90;;;;;;4957452;28;20166;-68
2022/11/15 09:33:59;;;;;;;4.40;3.53;;;12.40;99.90;;;;;;4956621;28;20207;-70
2022/11/15 09:36:26;;;;;;;1.10;1.10;;;12.40;99.90;;;;;;4957001;28;20183;-68
2022/11/15 09:38:52;;;;;;;0.67;0.67;;;12.50;99.90;;;;;;4956714;28;20173;-68
2022/11/15 09:41:34;;;;;;;1.17;1.17;;;12.50;99.90;;;;;;4956549;28;20464;-70
2022/11/15 09:44:28;;;;;;;1.13;0.80;;;12.70;99.90;;;;;;4957208;28;20276;-71
2022/11/15 09:47:43;;;;;;;1.67;1.57;;;12.80;99.90;;;;;;4956749;29;20415;-70
2022/11/15 09:50:16;;;;;;;1.13;1.13;;;13.00;99.90;;;;;;4943202;29;20468;-70
2022/11/15 09:52:45;;;;;;;1.27;1.17;;;13.10;99.90;;;;;;4956630;29;20493;-70
2022/11/15 09:55:16;;;;;;;1.90;1.80;;;13.20;99.90;;;;;;4956569;28;20432;-70
2022/11/15 09:57:49;;;;;;;1.00;1.00;;;13.10;99.90;;;;;;4956710;28;20484;-70
2022/11/15 10:00:29;;;;;;;0.30;0.30;;;13.00;99.90;;;;;;4956166;28;20444;-70
2022/11/15 10:03:12;;;;;;;2.97;1.13;;;12.90;99.90;;;;;;4956735;28;20757;-70
2022/11/15 10:05:45;;;;;;;1.17;1.17;;;12.80;99.90;;;;;;4956386;28;20437;-71
2022/11/15 10:08:23;;;;;;;0.80;0.80;;;12.80;99.90;;;;;;4956573;28;20769;-69
2022/11/15 10:10:56;;;;;;;0.60;0.60;;;12.70;99.90;;;;;;4955812;28;20413;-70
2022/11/15 10:13:34;;;;;;;0.53;0.53;;;12.80;99.90;;;;;;4956452;28;20450;-68
2022/11/15 10:16:10;;;;;;;0.30;0.30;;;12.80;99.90;;;;;;4955921;28;20472;-69
2022/11/15 10:18:47;;;;;;;0.40;0.40;;;12.80;99.90;;;;;;4956186;28;20400;-68
2022/11/15 10:21:23;;;;;;;0.53;0.53;;;12.90;99.90;;;;;;4956264;28;20401;-66
2022/11/15 10:23:50;;;;;;;0.67;0.67;;;13.00;99.90;;;;;;4956279;28;20487;-67
2022/11/15 10:26:17;;;;;;;0.50;0.50;;;13.10;99.90;;;;;;4956061;28;20420;-69
2022/11/15 10:28:43;;;;;;;0.40;0.40;;;13.10;99.90;;;;;;4955973;28;20807;-70
2022/11/15 10:31:25;;;;;;;0.73;0.73;;;13.20;99.90;;;;;;4956206;28;20413;-70
2022/11/15 10:33:59;;;;;;;2.27;2.07;;;13.30;99.90;;;;;;4956289;28;20276;-68
2022/11/15 10:36:25;;;;;;;3.00;2.87;;;13.30;99.90;;;;;;4956020;28;20405;-67
2022/11/15 10:38:51;;;;;;;4.37;2.80;;;13.30;99.90;;;;;;4955538;28;20425;-68
2022/11/15 10:41:18;;;;;;;4.33;3.93;;;13.20;99.90;;;;;;4955973;28;20406;-68
2022/11/15 10:43:44;;;;;;;2.53;1.40;;;13.20;99.90;;;;;;4955912;28;20201;-70
2022/11/15 10:46:21;;;;;;;2.37;1.10;;;13.10;99.90;;;;;;4955957;28;20416;-70
2022/11/15 10:48:47;;;;;;;1.27;1.07;;;13.20;99.90;;;;;;4955989;28;20762;-71
2022/11/15 10:51:40;;;;;;;1.13;0.60;;;13.20;99.90;;;;;;4955418;28;20417;-71
2022/11/15 10:54:08;;;;;;;1.60;1.50;;;13.20;99.90;;;;;;4955598;28;20217;-69
2022/11/15 10:56:34;;;;;;;1.83;1.73;;;13.30;99.90;;;;;;4955968;28;20416;-67
2022/11/15 10:59:00;;;;;;;0.83;0.53;;;13.40;99.90;;;;;;4955641;28;20417;-69
2022/11/15 11:01:29;;;;;;;0.93;0.93;;;13.50;99.90;;;;;;4955554;28;20268;-69
2022/11/15 11:04:06;;;;;;;0.97;0.97;;;13.40;99.90;;;;;;4954216;28;20177;-70
2022/11/15 11:06:57;;;;;;;3.20;2.07;;;13.70;99.90;;;;;;4955104;28;20417;-68
2022/11/15 11:09:32;;;;;;;1.97;1.80;;;13.80;99.90;;;;;;4955561;28;20830;-70
2022/11/15 11:11:59;;;;;;;0.60;0.60;;;13.90;99.90;;;;;;4955608;28;20811;-70
2022/11/15 11:14:33;;;;;;;0.50;0.50;;;14.10;99.90;;;;;;4955108;28;20468;-70
2022/11/15 11:17:18;;;;;;;1.13;1.00;;;14.20;99.90;;;;;;4955572;28;20446;-69
2022/11/15 11:19:58;;;;;;;1.57;1.37;;;14.30;99.90;;;;;;4955095;29;20413;-69
2022/11/15 11:22:30;;;;;;;0.47;0.47;;;14.40;99.90;;;;;;4954739;28;20420;-68
2022/11/15 11:25:05;;;;;;;0.40;0.40;;;14.30;99.90;;;;;;4953150;28;20523;-70
2022/11/15 11:27:40;;;;;;;0.40;0.40;;;14.20;99.90;;;;;;4954021;28;20424;-68
2022/11/15 11:30:14;;;;;;;0.70;0.70;;;14.00;99.90;;;;;;4953960;28;20471;-70
2022/11/15 11:32:58;;;;;;;0.50;0.50;;;13.90;99.90;;;;;;4954291;28;20464;-70
2022/11/15 11:35:27;;;;;;;0.40;0.40;;;13.90;99.90;;;;;;4954120;28;20779;-69
2022/11/15 11:38:10;;;;;;;0.40;0.40;;;13.90;99.90;;;;;;4954036;28;20769;-70
2022/11/15 11:40:55;;;;;;;0.40;0.40;;;13.80;99.90;;;;;;4954568;28;20412;-68
2022/11/15 11:43:45;;;;;;;0.50;0.50;;;13.90;99.90;;;;;;4955250;29;20481;-69
2022/11/15 11:46:21;;;;;;;0.40;0.40;;;13.90;99.90;;;;;;4955453;29;20781;-71
2022/11/15 11:48:52;;;;;;;2.77;1.90;;;14.00;99.90;;;;;;4955397;28;20409;-69
2022/11/15 11:51:42;;;;;;;0.60;0.60;;;14.00;99.90;;;;;;4955455;28;20463;-67
2022/11/15 11:54:48;;;;;;;0.40;0.40;;;14.00;99.90;;;;;;4954986;28;21026;-70
2022/11/15 11:57:42;;;;;;;0.40;0.40;;;14.10;99.90;;;;;;4955551;28;20414;-72
2022/11/15 12:00:21;;;;;;;5.00;0.80;;;14.20;99.90;;;;;;4955042;28;20421;-71
2022/11/15 12:03:16;;;;;;;0.80;0.80;;;14.30;99.90;;;;;;4955397;28;20791;-70
2022/11/15 12:05:46;;;;;;;0.40;0.40;;;14.20;99.90;;;;;;4955962;28;20545;-69
2022/11/15 12:08:50;;;;;;;0.43;0.43;;;14.10;99.90;;;;;;4958640;29;20412;-71
2022/11/15 12:11:30;;;;;;;0.40;0.40;;;14.10;99.90;;;;;;4958743;28;20412;-72
2022/11/15 12:14:01;;;;;;;0.37;0.37;;;14.20;99.90;;;;;;4958462;28;20452;-69
2022/11/15 12:16:32;;;;;;;0.40;0.40;;;14.20;99.90;;;;;;4958175;28;20443;-68
2022/11/15 12:19:04;;;;;;;0.40;0.40;;;14.20;99.90;;;;;;4958176;28;20414;-69
2022/11/15 12:22:04;;;;;;;0.30;0.30;;;14.10;99.90;;;;;;4958184;28;20401;-68
2022/11/15 12:25:16;;;;;;;0.30;0.30;;;14.00;99.90;;;;;;4958164;28;20798;-71
2022/11/15 12:27:46;;;;;;;0.30;0.30;;;13.90;99.90;;;;;;4930261;28;20443;-70
2022/11/15 12:30:21;;;;;;;0.67;0.67;;;13.80;99.90;;;;;;4957974;28;20401;-72
2022/11/15 12:33:33;;;;;;;0.40;0.40;;;13.70;99.90;;;;;;4958556;28;20860;-69
2022/11/15 12:36:11;;;;;;;0.60;0.50;;;13.60;99.90;;;;;;4944351;28;20528;-71
2022/11/15 12:39:04;;;;;;;0.40;0.40;;;13.50;99.90;;;;;;4957962;28;20400;-72
2022/11/15 12:41:33;;;;;;;0.30;0.30;;;13.60;99.90;;;;;;4958328;28;20876;-69
2022/11/15 12:43:59;;;;;;;0.40;0.40;;;13.80;99.90;;;;;;4957798;28;20461;-68
2022/11/15 12:46:31;;;;;;;0.47;0.40;;;14.00;99.90;;;;;;4958135;28;20437;-71
2022/11/15 12:49:02;;;;;;;1.27;0.77;;;14.10;99.90;;;;;;4957846;28;20421;-68
2022/11/15 12:51:43;;;;;;;0.43;0.43;;;14.20;99.90;;;;;;4958208;28;20446;-71
2022/11/15 12:54:32;;;;;;;1.43;0.50;;;14.30;99.90;;;;;;4957525;28;20466;-70
2022/11/15 12:57:03;;;;;;;0.83;0.53;;;14.50;99.90;;;;;;4930284;28;20785;-69
2022/11/15 13:00:02;;;;;;;0.50;0.50;;;14.60;99.90;;;;;;4957564;28;20413;-69
2022/11/15 13:02:45;;;;;;;1.47;1.37;;;14.60;99.10;;;;;;4957702;28;20409;-71
2022/11/15 13:05:19;;;;;;;0.70;0.60;;;14.40;99.10;;;;;;4957435;28;20488;-70
2022/11/15 13:07:45;;;;;;;0.40;0.40;;;14.10;98.80;;;;;;4957928;28;20456;-69
2022/11/15 13:10:13;;;;;;;0.73;0.70;;;14.10;99.70;;;;;;4957007;28;20808;-68
2022/11/15 13:12:45;;;;;;;1.07;0.60;;;14.20;99.90;;;;;;4957385;28;20299;-71
2022/11/15 13:15:13;;;;;;;0.63;0.63;;;14.30;99.90;;;;;;4956839;28;20484;-69
2022/11/15 13:17:50;;;;;;;0.93;0.50;;;14.30;99.90;;;;;;4957446;28;20430;-68
2022/11/15 13:20:15;;;;;;;0.50;0.50;;;14.20;99.90;;;;;;4957231;28;20894;-70
2022/11/15 13:23:04;;;;;;;0.60;0.60;;;14.30;99.90;;;;;;4957636;28;20476;-71